Time;durP1;ratioP1;P1;durP2;ratioP2;P2;SDS_P1;SDS_P2;PMS_P1;PMS_P2;Temp;Humidity;BMP_temperature;BMP_pressure;BME280_temperature;BME280_humidity;BME280_pressure;Samples;Min_cycle;Max_cycle;Signal;HPM_P1;HPM_P2
2023/06/07 00:01:42;;;;;;;11.97;9.17;;;12.10;99.90;;;;;;4992700;28;20182;-83
2023/06/07 00:04:11;;;;;;;9.87;9.30;;;12.00;99.90;;;;;;5009995;28;20188;-85
2023/06/07 00:06:39;;;;;;;11.10;8.83;;;12.10;99.90;;;;;;4992277;28;20194;-84
2023/06/07 00:09:06;;;;;;;12.23;11.43;;;12.20;99.90;;;;;;4992154;28;20665;-85
2023/06/07 00:11:33;;;;;;;17.57;16.97;;;12.10;99.90;;;;;;5008970;28;20194;-84
2023/06/07 00:13:59;;;;;;;20.67;19.87;;;12.20;99.90;;;;;;5009758;28;20274;-83
2023/06/07 00:16:26;;;;;;;22.17;21.30;;;12.30;99.90;;;;;;4992150;28;20275;-85
2023/06/07 00:18:52;;;;;;;31.10;30.13;;;12.30;99.90;;;;;;4992462;28;20183;-85
2023/06/07 00:21:19;;;;;;;44.60;42.83;;;12.30;99.90;;;;;;4993782;28;20179;-83
2023/06/07 00:23:46;;;;;;;64.50;62.50;;;12.40;99.90;;;;;;4996067;28;20191;-83
2023/06/07 00:26:12;;;;;;;90.87;87.90;;;12.50;99.90;;;;;;5012453;28;20345;-84
2023/06/07 00:28:38;;;;;;;68.37;66.13;;;12.40;99.90;;;;;;5013503;28;20306;-84
2023/06/07 00:31:04;;;;;;;87.00;84.10;;;12.30;99.90;;;;;;4995437;28;20644;-84
2023/06/07 00:33:30;;;;;;;98.63;93.93;;;12.30;99.90;;;;;;5012794;28;20171;-84
2023/06/07 00:35:56;;;;;;;127.17;123.30;;;12.30;99.90;;;;;;5012117;28;20245;-83
2023/06/07 00:38:23;;;;;;;107.50;104.03;;;12.30;99.90;;;;;;4978545;28;20437;-84
2023/06/07 00:40:49;;;;;;;141.00;136.47;;;12.20;99.90;;;;;;4995306;28;20194;-85
2023/06/07 00:43:15;;;;;;;168.03;163.03;;;12.20;99.90;;;;;;5013587;28;20188;-83
2023/06/07 00:45:41;;;;;;;175.87;170.67;;;12.20;99.90;;;;;;5013416;28;20348;-84
2023/06/07 00:48:07;;;;;;;189.50;184.00;;;12.30;99.90;;;;;;4996086;28;20448;-84
2023/06/07 00:50:33;;;;;;;211.33;205.03;;;12.20;99.90;;;;;;4996185;28;20226;-84
2023/06/07 00:53:00;;;;;;;228.53;221.77;;;12.30;99.90;;;;;;5013112;28;20186;-84
2023/06/07 00:55:27;;;;;;;242.63;235.43;;;12.20;99.90;;;;;;4979985;28;20262;-83
2023/06/07 00:57:54;;;;;;;254.40;247.00;;;12.30;99.90;;;;;;4995874;28;20659;-82
2023/06/07 01:00:20;;;;;;;251.43;243.73;;;12.30;99.90;;;;;;4979853;28;20186;-83
2023/06/07 01:02:49;;;;;;;243.03;235.80;;;12.30;99.90;;;;;;4994835;28;20238;-83
2023/06/07 01:05:16;;;;;;;254.20;246.50;;;12.30;99.90;;;;;;4995806;28;20175;-83
2023/06/07 01:07:49;;;;;;;255.20;247.60;;;12.30;99.90;;;;;;5012435;28;20183;-83
2023/06/07 01:10:16;;;;;;;249.27;241.93;;;12.30;99.90;;;;;;5012643;28;20196;-84
2023/06/07 01:12:47;;;;;;;253.43;246.20;;;12.40;99.90;;;;;;5012632;28;20529;-83
2023/06/07 01:15:13;;;;;;;253.70;246.40;;;12.30;99.90;;;;;;4979824;28;20172;-84
2023/06/07 01:17:42;;;;;;;247.40;239.87;;;12.30;99.90;;;;;;4995772;28;20180;-83
2023/06/07 01:20:13;;;;;;;216.33;209.53;;;12.30;99.90;;;;;;4995624;28;20195;-85
2023/06/07 01:22:42;;;;;;;203.57;197.37;;;12.40;99.90;;;;;;5012467;28;20174;-83
2023/06/07 01:25:09;;;;;;;174.63;169.40;;;12.40;99.90;;;;;;5012812;28;20547;-85
2023/06/07 01:27:37;;;;;;;154.53;149.63;;;12.50;99.90;;;;;;5013005;28;20211;-83
2023/06/07 01:30:03;;;;;;;125.20;121.30;;;12.50;99.90;;;;;;4995286;28;20223;-83
2023/06/07 01:32:31;;;;;;;134.93;130.23;;;12.50;99.90;;;;;;5011890;28;20511;-83
2023/06/07 01:34:57;;;;;;;120.57;115.90;;;12.40;99.90;;;;;;4995297;28;20238;-83
2023/06/07 01:37:23;;;;;;;123.10;119.37;;;12.30;99.90;;;;;;4995379;28;20187;-84
2023/06/07 01:39:51;;;;;;;122.23;118.50;;;12.40;99.90;;;;;;4995405;28;20191;-83
2023/06/07 01:42:18;;;;;;;101.70;98.03;;;12.30;99.90;;;;;;5012610;28;20233;-83
2023/06/07 01:44:48;;;;;;;92.23;88.40;;;12.40;99.90;;;;;;4978362;28;20282;-83
2023/06/07 01:47:14;;;;;;;83.73;80.80;;;12.30;99.90;;;;;;5012391;28;20241;-83
2023/06/07 01:49:41;;;;;;;68.20;65.30;;;12.30;99.90;;;;;;4978979;28;20221;-84
2023/06/07 01:52:07;;;;;;;58.90;56.70;;;12.30;99.90;;;;;;4994367;28;20843;-86
2023/06/07 01:54:34;;;;;;;53.67;51.17;;;12.20;99.90;;;;;;4994893;28;20183;-86
2023/06/07 01:57:17;;;;;;;45.27;43.27;;;12.30;99.90;;;;;;4995133;28;20216;-83
2023/06/07 02:00:02;;;;;;;61.07;59.07;;;12.30;99.90;;;;;;5012517;28;20160;-85
2023/06/07 02:02:31;;;;;;;32.97;31.73;;;12.30;99.90;;;;;;4994803;28;20187;-83
2023/06/07 02:05:04;;;;;;;27.70;26.53;;;12.40;99.90;;;;;;5012318;28;20187;-85
2023/06/07 02:07:35;;;;;;;25.17;24.23;;;12.40;99.90;;;;;;4994728;28;20174;-84
2023/06/07 02:10:03;;;;;;;23.10;21.90;;;12.40;99.90;;;;;;4994781;28;20199;-84
2023/06/07 02:12:31;;;;;;;16.40;15.80;;;12.40;99.90;;;;;;4994688;28;20182;-83
2023/06/07 02:15:00;;;;;;;40.07;38.83;;;12.40;99.90;;;;;;4994701;28;20175;-85
2023/06/07 02:17:25;;;;;;;19.17;18.47;;;12.30;99.90;;;;;;5012134;28;20539;-84
2023/06/07 02:19:51;;;;;;;13.57;12.87;;;12.30;99.90;;;;;;4962581;28;20184;-83
2023/06/07 02:22:17;;;;;;;9.50;8.93;;;12.40;99.90;;;;;;4978778;28;20721;-83
2023/06/07 02:24:43;;;;;;;8.67;8.27;;;12.40;99.90;;;;;;4978249;28;20659;-83
2023/06/07 02:27:08;;;;;;;13.93;6.30;;;12.40;99.90;;;;;;4978318;28;20184;-83
2023/06/07 02:29:35;;;;;;;9.80;7.70;;;12.40;99.90;;;;;;4962146;28;20211;-85
2023/06/07 02:32:01;;;;;;;8.23;6.67;;;12.30;99.90;;;;;;5011647;28;20704;-83
2023/06/07 02:34:29;;;;;;;7.93;7.47;;;12.30;99.90;;;;;;4994167;28;20210;-84
2023/06/07 02:36:55;;;;;;;9.03;8.57;;;12.30;99.90;;;;;;4993632;28;20234;-84
2023/06/07 02:39:21;;;;;;;6.40;6.20;;;12.30;99.90;;;;;;4977969;28;20211;-83
2023/06/07 02:41:47;;;;;;;7.43;7.03;;;12.40;99.90;;;;;;4994025;28;20207;-83
2023/06/07 02:44:13;;;;;;;8.30;7.87;;;12.40;99.90;;;;;;4993179;28;20187;-84
2023/06/07 02:46:39;;;;;;;8.67;7.10;;;12.40;99.90;;;;;;5011471;28;20243;-85
2023/06/07 02:49:05;;;;;;;7.10;6.80;;;12.40;99.90;;;;;;4994314;28;20327;-83
2023/06/07 02:51:31;;;;;;;9.00;8.27;;;12.40;99.90;;;;;;4994197;28;20187;-82
2023/06/07 02:53:57;;;;;;;6.80;6.20;;;12.30;99.90;;;;;;5011180;28;20876;-83
2023/06/07 02:56:26;;;;;;;6.83;6.53;;;12.40;99.90;;;;;;5010193;28;20188;-85
2023/06/07 02:58:52;;;;;;;7.33;5.97;;;12.40;99.90;;;;;;4993978;28;20195;-84
2023/06/07 03:01:18;;;;;;;12.37;7.37;;;12.40;99.90;;;;;;4993798;28;20217;-84
2023/06/07 03:03:47;;;;;;;7.93;7.53;;;12.40;99.90;;;;;;4993663;28;20195;-85
2023/06/07 03:06:15;;;;;;;7.50;7.13;;;12.40;99.90;;;;;;4993631;28;20186;-85
2023/06/07 03:08:41;;;;;;;11.00;10.23;;;12.40;99.90;;;;;;4993905;28;20223;-84
2023/06/07 03:11:06;;;;;;;18.53;17.73;;;12.40;99.90;;;;;;4977017;28;20329;-84
2023/06/07 03:13:32;;;;;;;21.70;20.30;;;12.50;99.90;;;;;;5010668;28;20587;-84
2023/06/07 03:15:58;;;;;;;19.23;18.60;;;12.40;99.90;;;;;;5009798;28;20195;-85
2023/06/07 03:18:24;;;;;;;23.93;22.83;;;12.40;99.90;;;;;;4977568;28;20695;-85
2023/06/07 03:20:49;;;;;;;34.40;33.03;;;12.40;99.90;;;;;;4977231;28;20634;-85
2023/06/07 03:23:15;;;;;;;35.13;33.73;;;12.40;99.90;;;;;;4993789;28;20519;-85
2023/06/07 03:25:41;;;;;;;36.60;35.27;;;12.40;99.90;;;;;;4992774;28;20191;-85
2023/06/07 03:28:07;;;;;;;37.27;36.07;;;12.40;99.90;;;;;;5010872;28;20188;-85
2023/06/07 03:30:33;;;;;;;44.73;43.17;;;12.40;99.90;;;;;;5010704;28;20718;-84
2023/06/07 03:32:58;;;;;;;50.27;48.63;;;12.40;99.90;;;;;;4976605;28;20207;-84
2023/06/07 03:35:24;;;;;;;69.17;66.93;;;12.40;99.90;;;;;;4992702;28;20188;-84
2023/06/07 03:37:50;;;;;;;64.40;62.30;;;12.40;99.90;;;;;;5010618;28;20551;-84
2023/06/07 03:40:16;;;;;;;62.73;60.67;;;12.40;99.90;;;;;;5010395;28;20179;-83
2023/06/07 03:42:42;;;;;;;78.80;76.20;;;12.30;99.90;;;;;;4975761;28;20234;-83
2023/06/07 03:45:08;;;;;;;82.33;79.33;;;12.30;99.90;;;;;;4992839;28;20346;-83
2023/06/07 03:47:33;;;;;;;72.63;70.30;;;12.40;99.90;;;;;;4977212;28;20187;-83
2023/06/07 03:49:59;;;;;;;91.37;87.87;;;12.40;99.90;;;;;;4976492;28;20215;-83
2023/06/07 03:52:25;;;;;;;99.13;95.77;;;12.40;99.90;;;;;;4992962;28;20188;-83
2023/06/07 03:54:51;;;;;;;101.23;97.97;;;12.50;99.90;;;;;;4992828;28;20183;-85
2023/06/07 03:57:17;;;;;;;96.93;93.77;;;12.40;99.90;;;;;;4966647;28;20210;-85
2023/06/07 03:59:45;;;;;;;94.90;92.00;;;12.40;99.90;;;;;;4998617;28;20183;-83
2023/06/07 04:02:11;;;;;;;100.90;96.23;;;12.40;99.90;;;;;;4998031;28;20210;-83
2023/06/07 04:04:37;;;;;;;97.50;94.40;;;12.40;99.90;;;;;;5015705;28;20195;-85
2023/06/07 04:07:03;;;;;;;97.47;94.47;;;12.40;99.90;;;;;;4998309;28;20183;-85
2023/06/07 04:09:30;;;;;;;105.80;102.60;;;12.40;99.90;;;;;;4982294;28;20214;-84
2023/06/07 04:11:56;;;;;;;103.60;100.47;;;12.50;99.90;;;;;;5014433;28;20187;-85
2023/06/07 04:14:22;;;;;;;106.87;103.47;;;12.60;99.90;;;;;;5016680;28;20179;-84
2023/06/07 04:16:47;;;;;;;104.13;100.93;;;12.60;99.90;;;;;;4982712;28;20804;-85
2023/06/07 04:19:13;;;;;;;108.00;104.70;;;12.60;99.90;;;;;;4998454;28;20183;-84
2023/06/07 04:21:39;;;;;;;107.23;103.63;;;12.60;99.90;;;;;;4965288;28;20183;-85
2023/06/07 04:24:06;;;;;;;102.33;98.77;;;12.60;99.90;;;;;;5015121;28;20180;-83
2023/06/07 04:26:31;;;;;;;101.53;98.43;;;12.70;99.90;;;;;;4998940;28;20171;-83
2023/06/07 04:28:58;;;;;;;104.47;101.03;;;12.80;99.90;;;;;;4983343;28;20237;-83
2023/06/07 04:31:29;;;;;;;106.77;102.90;;;12.70;99.90;;;;;;4983173;28;20180;-83
2023/06/07 04:33:59;;;;;;;97.03;93.90;;;12.70;99.90;;;;;;4998975;28;20198;-84
2023/06/07 04:36:37;;;;;;;103.80;100.67;;;12.70;99.90;;;;;;4999513;28;20190;-83
2023/06/07 04:39:05;;;;;;;99.00;95.70;;;12.70;99.90;;;;;;5000777;28;20547;-83
2023/06/07 04:41:32;;;;;;;99.97;96.87;;;12.70;99.90;;;;;;5016072;28;20233;-85
2023/06/07 04:44:03;;;;;;;104.60;100.83;;;12.70;99.90;;;;;;5016159;28;20195;-83
2023/06/07 04:46:31;;;;;;;104.30;100.93;;;12.60;99.90;;;;;;4995407;28;20228;-84
2023/06/07 04:48:58;;;;;;;101.63;98.33;;;12.80;99.90;;;;;;4996494;28;20240;-84
2023/06/07 04:51:25;;;;;;;95.40;92.27;;;12.80;99.90;;;;;;4997084;28;20239;-83
2023/06/07 04:53:58;;;;;;;94.17;91.27;;;12.90;99.90;;;;;;4996540;28;20230;-84
2023/06/07 04:56:26;;;;;;;89.20;86.30;;;13.00;99.90;;;;;;4997063;28;20219;-83
2023/06/07 04:58:52;;;;;;;87.50;84.70;;;13.00;99.90;;;;;;4995655;28;20184;-83
2023/06/07 05:01:22;;;;;;;85.10;82.13;;;13.10;99.90;;;;;;4995620;28;20176;-85
2023/06/07 05:03:49;;;;;;;73.43;70.90;;;13.20;99.90;;;;;;4995311;28;20242;-84
2023/06/07 05:06:17;;;;;;;80.60;77.90;;;13.20;99.90;;;;;;4978880;28;20267;-86
2023/06/07 05:08:43;;;;;;;86.93;83.83;;;13.30;99.90;;;;;;4991701;28;20216;-83
2023/06/07 05:11:08;;;;;;;86.97;84.20;;;13.10;99.90;;;;;;4975603;28;20625;-84
2023/06/07 05:13:34;;;;;;;90.10;87.03;;;13.10;99.90;;;;;;4992721;28;20238;-84
2023/06/07 05:16:01;;;;;;;93.50;90.20;;;13.20;99.90;;;;;;4992471;28;20272;-85
2023/06/07 05:18:27;;;;;;;96.87;93.57;;;13.10;99.90;;;;;;4992066;28;20199;-83
2023/06/07 05:20:53;;;;;;;95.23;92.00;;;13.20;99.90;;;;;;4991862;28;20191;-85
2023/06/07 05:23:18;;;;;;;96.63;93.63;;;13.20;99.90;;;;;;4991797;28;20642;-82
2023/06/07 05:25:44;;;;;;;95.33;92.37;;;13.20;99.90;;;;;;4992152;28;20239;-84
2023/06/07 05:28:11;;;;;;;100.30;96.80;;;13.20;99.90;;;;;;4993115;28;20235;-83
2023/06/07 05:30:37;;;;;;;99.23;95.77;;;13.10;99.90;;;;;;4992230;28;20181;-84
2023/06/07 05:33:04;;;;;;;96.70;93.67;;;13.10;99.90;;;;;;4993728;28;20231;-87
2023/06/07 05:35:29;;;;;;;89.77;86.77;;;13.10;99.90;;;;;;4975815;28;20184;-85
2023/06/07 05:37:55;;;;;;;89.03;86.03;;;13.20;99.90;;;;;;4975280;28;20540;-86
2023/06/07 05:40:21;;;;;;;86.93;84.07;;;13.30;99.90;;;;;;4974837;28;20706;-84
2023/06/07 05:42:49;;;;;;;93.93;90.90;;;13.50;99.90;;;;;;4975530;28;20181;-85
2023/06/07 05:45:16;;;;;;;91.67;88.67;;;13.40;99.90;;;;;;4991515;28;20231;-84
2023/06/07 05:47:43;;;;;;;90.50;87.70;;;13.30;99.90;;;;;;4991760;28;20426;-84
2023/06/07 05:50:10;;;;;;;91.40;88.40;;;13.30;99.90;;;;;;4991495;28;20215;-85
2023/06/07 05:52:40;;;;;;;94.67;91.67;;;13.40;99.90;;;;;;4992922;28;20210;-85
2023/06/07 05:55:07;;;;;;;97.10;93.50;;;13.50;99.90;;;;;;4991744;28;20180;-85
2023/06/07 05:57:33;;;;;;;91.50;88.07;;;13.50;99.90;;;;;;4975334;28;20184;-83
2023/06/07 05:59:59;;;;;;;87.23;84.50;;;13.50;99.90;;;;;;4991508;28;20192;-83
2023/06/07 06:02:28;;;;;;;94.77;91.47;;;13.20;99.90;;;;;;4991196;28;20188;-83
2023/06/07 06:04:55;;;;;;;84.73;81.73;;;13.30;99.90;;;;;;4991039;28;20176;-86
2023/06/07 06:07:21;;;;;;;92.03;89.03;;;13.40;99.90;;;;;;4975753;28;20211;-86
2023/06/07 06:09:46;;;;;;;90.97;87.67;;;13.50;99.90;;;;;;4975555;28;20212;-85
2023/06/07 06:12:12;;;;;;;89.73;86.80;;;13.60;99.90;;;;;;4991166;28;20185;-85
2023/06/07 06:14:38;;;;;;;85.13;81.57;;;13.60;99.90;;;;;;4992388;28;20192;-88
2023/06/07 06:17:05;;;;;;;93.20;89.80;;;13.50;99.90;;;;;;4991364;28;20680;-87
2023/06/07 06:19:31;;;;;;;82.53;79.40;;;13.50;99.90;;;;;;4990754;28;20238;-85
2023/06/07 06:21:57;;;;;;;83.97;81.10;;;13.70;99.90;;;;;;4975391;28;20653;-85
2023/06/07 06:24:23;;;;;;;92.07;89.07;;;13.90;99.90;;;;;;4991133;28;20247;-85
2023/06/07 06:26:50;;;;;;;89.80;86.70;;;14.00;99.90;;;;;;4959342;28;20187;-85
2023/06/07 06:29:16;;;;;;;88.57;85.67;;;14.00;99.90;;;;;;4990719;28;20216;-85
2023/06/07 06:31:43;;;;;;;91.07;87.87;;;14.00;99.90;;;;;;4991396;28;20180;-83
2023/06/07 06:34:09;;;;;;;86.23;83.27;;;14.10;99.90;;;;;;4990991;28;20192;-83
2023/06/07 06:36:36;;;;;;;81.83;79.27;;;14.40;99.90;;;;;;4991173;28;20184;-87
2023/06/07 06:39:03;;;;;;;85.63;82.93;;;14.20;99.90;;;;;;4990966;28;20536;-84
2023/06/07 06:41:30;;;;;;;79.77;77.00;;;13.90;99.90;;;;;;4991495;28;20184;-85
2023/06/07 06:43:56;;;;;;;78.23;75.77;;;13.90;99.90;;;;;;4973962;28;20287;-84
2023/06/07 06:46:22;;;;;;;76.93;74.43;;;14.00;99.90;;;;;;4988923;28;20236;-85
2023/06/07 06:48:48;;;;;;;72.20;69.63;;;13.90;99.90;;;;;;4973639;28;20412;-84
2023/06/07 06:51:13;;;;;;;76.60;73.93;;;14.00;99.90;;;;;;4991461;28;20180;-85
2023/06/07 06:53:39;;;;;;;71.17;68.40;;;14.20;99.90;;;;;;4957701;28;20819;-85
2023/06/07 06:56:06;;;;;;;74.83;71.90;;;14.30;99.90;;;;;;4957124;28;20176;-84
2023/06/07 06:58:34;;;;;;;69.23;66.90;;;14.40;99.90;;;;;;4991543;28;20224;-85
2023/06/07 07:01:01;;;;;;;79.00;76.40;;;14.30;99.90;;;;;;4990027;28;20217;-87
2023/06/07 07:03:27;;;;;;;72.33;69.73;;;14.40;99.90;;;;;;4973942;28;20187;-86
2023/06/07 07:05:52;;;;;;;63.07;60.30;;;14.30;99.90;;;;;;4988947;28;20188;-88
2023/06/07 07:08:18;;;;;;;67.13;64.73;;;14.30;99.90;;;;;;4973881;28;20180;-86
2023/06/07 07:10:45;;;;;;;59.03;56.90;;;14.50;99.90;;;;;;4974583;28;20271;-84
2023/06/07 07:13:10;;;;;;;60.13;58.03;;;14.60;99.90;;;;;;4958463;28;20333;-84
2023/06/07 07:15:36;;;;;;;68.30;65.80;;;14.70;99.90;;;;;;4974335;28;20718;-88
2023/06/07 07:18:02;;;;;;;61.53;59.33;;;14.90;99.90;;;;;;4974016;28;20267;-85
2023/06/07 07:20:28;;;;;;;48.20;46.47;;;15.00;99.90;;;;;;4990273;28;20275;-87
2023/06/07 07:22:55;;;;;;;42.07;40.63;;;14.80;99.90;;;;;;4990278;28;20272;-87
2023/06/07 07:25:21;;;;;;;39.93;38.27;;;14.90;99.90;;;;;;4958511;28;20184;-85
2023/06/07 07:27:46;;;;;;;33.13;31.93;;;15.10;99.90;;;;;;4974248;28;20181;-86
2023/06/07 07:30:12;;;;;;;30.40;28.67;;;15.00;99.90;;;;;;4989276;28;20208;-84
2023/06/07 07:32:38;;;;;;;31.00;29.60;;;15.00;99.90;;;;;;4957583;28;20556;-86
2023/06/07 07:35:04;;;;;;;31.50;30.40;;;15.10;99.90;;;;;;4990032;28;20185;-84
2023/06/07 07:37:30;;;;;;;26.77;25.67;;;15.30;99.90;;;;;;4974041;28;20270;-85
2023/06/07 07:39:56;;;;;;;25.53;24.40;;;15.20;99.90;;;;;;4989958;28;20215;-85
2023/06/07 07:42:22;;;;;;;22.43;20.90;;;15.30;99.90;;;;;;4989587;28;20646;-85
2023/06/07 07:44:48;;;;;;;19.77;18.70;;;15.00;99.90;;;;;;4990080;28;20191;-83
2023/06/07 07:47:13;;;;;;;17.43;16.43;;;15.10;99.90;;;;;;4988659;28;20263;-84
2023/06/07 07:49:39;;;;;;;18.93;18.07;;;15.10;99.90;;;;;;4973085;28;20319;-84
2023/06/07 07:52:05;;;;;;;19.20;17.90;;;15.40;99.90;;;;;;4973581;28;20752;-85
2023/06/07 07:54:31;;;;;;;16.80;16.00;;;15.70;99.90;;;;;;4973479;28;20184;-85
2023/06/07 07:56:57;;;;;;;14.40;13.27;;;15.70;99.90;;;;;;4973673;28;20188;-85
2023/06/07 07:59:22;;;;;;;12.07;11.37;;;15.80;99.90;;;;;;4972090;28;20336;-83
2023/06/07 08:03:48;;;;;;;11.93;11.33;;;15.30;99.90;;;;;;5049232;28;20611;-85
2023/06/07 08:06:15;;;;;;;11.43;10.77;;;15.20;99.90;;;;;;5032875;28;20315;-82
2023/06/07 08:08:41;;;;;;;11.43;10.93;;;15.40;99.90;;;;;;5045475;28;20233;-84
2023/06/07 08:11:09;;;;;;;10.63;10.13;;;15.60;99.90;;;;;;5046179;28;20209;-84
2023/06/07 08:13:38;;;;;;;11.77;11.17;;;15.50;99.90;;;;;;5038463;28;20585;-84
2023/06/07 08:16:05;;;;;;;12.73;12.20;;;15.50;99.90;;;;;;5037122;28;20214;-83
2023/06/07 08:18:30;;;;;;;14.00;13.20;;;15.60;99.90;;;;;;5029302;28;20218;-84
2023/06/07 08:20:56;;;;;;;12.33;11.63;;;15.80;99.90;;;;;;5020923;28;20221;-84
2023/06/07 08:23:22;;;;;;;11.47;10.77;;;16.00;99.90;;;;;;5037021;28;20225;-85
2023/06/07 08:25:47;;;;;;;12.83;11.70;;;16.20;99.90;;;;;;5028581;28;20905;-84
2023/06/07 08:28:15;;;;;;;12.17;11.37;;;16.20;99.90;;;;;;5035674;28;20221;-83
2023/06/07 08:30:42;;;;;;;12.37;11.57;;;16.10;99.90;;;;;;5022686;28;20297;-83
2023/06/07 08:33:08;;;;;;;12.00;11.23;;;15.40;99.90;;;;;;5037721;28;20218;-84
2023/06/07 08:35:33;;;;;;;13.67;11.90;;;15.40;99.90;;;;;;5036160;28;20232;-84
2023/06/07 08:38:00;;;;;;;13.70;12.73;;;15.60;99.90;;;;;;5014651;28;20632;-84
2023/06/07 08:40:26;;;;;;;15.30;14.17;;;15.70;99.90;;;;;;5020350;28;20219;-84
2023/06/07 08:42:52;;;;;;;15.43;14.63;;;15.80;99.90;;;;;;5034647;28;20238;-84
2023/06/07 08:45:18;;;;;;;15.23;14.43;;;16.00;99.90;;;;;;5035618;28;20233;-84
2023/06/07 08:47:45;;;;;;;21.83;21.03;;;16.10;99.90;;;;;;5036443;28;20214;-85
2023/06/07 08:50:14;;;;;;;18.60;16.97;;;15.90;99.90;;;;;;5032877;28;20297;-85
2023/06/07 08:52:41;;;;;;;21.03;19.83;;;16.00;99.90;;;;;;5017398;28;20198;-86
2023/06/07 08:55:12;;;;;;;23.33;22.47;;;16.30;99.90;;;;;;5035274;28;20218;-87
2023/06/07 08:57:38;;;;;;;23.23;21.90;;;16.50;99.90;;;;;;5033341;28;20329;-84
2023/06/07 09:00:08;;;;;;;26.27;25.17;;;16.40;99.90;;;;;;5013087;28;20242;-86
2023/06/07 09:02:33;;;;;;;23.33;22.13;;;16.10;99.90;;;;;;5033184;28;20246;-85
2023/06/07 09:05:01;;;;;;;11.50;10.87;;;16.40;99.90;;;;;;5000323;28;20197;-85
2023/06/07 09:07:27;;;;;;;29.93;28.83;;;17.70;99.90;;;;;;5031120;28;20215;-87
2023/06/07 09:09:54;;;;;;;70.13;67.60;;;18.20;99.90;;;;;;5027416;28;20225;-85
2023/06/07 09:12:20;;;;;;;99.07;95.97;;;17.80;99.90;;;;;;5034299;28;20241;-85
2023/06/07 09:14:47;;;;;;;110.17;106.53;;;18.10;99.90;;;;;;5006881;28;20345;-85
2023/06/07 09:17:12;;;;;;;131.47;127.47;;;18.30;99.90;;;;;;5019564;28;20406;-84
2023/06/07 09:19:39;;;;;;;134.90;130.77;;;18.10;99.90;;;;;;5051341;28;20633;-85
2023/06/07 09:22:07;;;;;;;132.83;128.77;;;18.40;99.90;;;;;;4997103;28;20225;-84
2023/06/07 09:24:34;;;;;;;114.43;110.73;;;18.70;99.90;;;;;;5005504;28;20284;-85
2023/06/07 09:27:02;;;;;;;64.17;62.13;;;18.80;99.90;;;;;;5023886;28;20268;-85
2023/06/07 09:29:29;;;;;;;42.23;40.53;;;19.80;99.90;;;;;;5004611;28;20198;-86
2023/06/07 09:32:23;;;;;;;29.87;28.63;;;19.40;99.90;;;;;;5021687;28;20299;-86
2023/06/07 09:34:52;;;;;;;23.70;22.63;;;18.50;99.90;;;;;;5022228;28;20215;-86
2023/06/07 09:37:20;;;;;;;20.93;19.87;;;18.60;99.90;;;;;;5038532;28;20233;-86
2023/06/07 09:39:50;;;;;;;17.07;16.20;;;18.60;99.90;;;;;;5018570;28;20630;-86
2023/06/07 09:42:17;;;;;;;18.30;17.20;;;18.40;99.90;;;;;;5023089;28;20250;-86
2023/06/07 09:44:43;;;;;;;25.63;24.37;;;18.90;99.90;;;;;;5021750;28;20223;-86
2023/06/07 09:47:35;;;;;;;20.57;19.73;;;18.50;99.90;;;;;;5021660;28;20245;-84
2023/06/07 09:50:14;;;;;;;21.03;20.03;;;18.10;99.90;;;;;;5017963;28;20213;-86
2023/06/07 09:52:40;;;;;;;29.00;27.87;;;18.70;99.90;;;;;;5002332;28;20754;-84
2023/06/07 09:55:08;;;;;;;17.63;16.33;;;18.90;99.90;;;;;;5002868;28;20568;-85
2023/06/07 09:57:36;;;;;;;14.83;13.80;;;19.30;99.90;;;;;;5021759;28;20247;-86
2023/06/07 10:02:34;;;;;;;17.83;16.83;;;19.40;99.90;;;;;;5021239;28;20243;-87
2023/06/07 10:05:00;;;;;;;18.90;18.00;;;18.80;99.90;;;;;;5020366;28;21113;-84
2023/06/07 10:07:38;;;;;;;16.00;15.30;;;18.70;99.90;;;;;;5019478;28;20223;-84
2023/06/07 10:10:06;;;;;;;18.33;17.37;;;18.90;99.90;;;;;;5017471;28;20223;-84
2023/06/07 10:12:35;;;;;;;17.67;16.53;;;19.40;99.90;;;;;;5029460;28;20241;-85
2023/06/07 10:15:03;;;;;;;15.30;14.03;;;19.70;99.90;;;;;;5023884;28;20787;-84
2023/06/07 10:17:35;;;;;;;17.23;15.80;;;19.80;99.90;;;;;;5021387;28;20221;-85
2023/06/07 10:20:03;;;;;;;12.03;11.33;;;19.50;99.90;;;;;;5021498;28;20194;-84
2023/06/07 10:22:37;;;;;;;15.43;14.63;;;19.80;99.90;;;;;;5023422;28;20226;-85
2023/06/07 10:25:10;;;;;;;12.10;11.47;;;20.20;99.90;;;;;;5020674;28;20222;-86
2023/06/07 10:27:38;;;;;;;19.17;17.77;;;20.20;99.90;;;;;;5023811;28;20305;-86
2023/06/07 10:30:13;;;;;;;19.20;18.37;;;19.90;99.90;;;;;;5018786;28;20373;-85
2023/06/07 10:32:39;;;;;;;19.07;18.07;;;19.90;99.90;;;;;;5021840;28;20236;-85
2023/06/07 10:35:11;;;;;;;15.73;14.83;;;20.00;99.90;;;;;;5007124;28;20536;-85
2023/06/07 10:37:37;;;;;;;14.80;13.93;;;20.20;99.90;;;;;;5020210;28;20229;-84
2023/06/07 10:40:10;;;;;;;20.07;19.27;;;19.90;99.90;;;;;;5018729;28;20215;-85
2023/06/07 10:42:40;;;;;;;15.17;14.20;;;19.50;99.90;;;;;;5014089;28;20230;-85
2023/06/07 10:45:08;;;;;;;19.50;18.60;;;19.70;99.90;;;;;;5022739;28;20225;-85
2023/06/07 10:47:34;;;;;;;19.97;18.80;;;19.40;99.90;;;;;;5025092;28;20519;-84
2023/06/07 10:50:00;;;;;;;17.10;16.00;;;19.50;99.90;;;;;;5006058;28;20211;-83
2023/06/07 10:52:26;;;;;;;17.37;16.20;;;20.10;99.90;;;;;;5022809;28;20242;-84
2023/06/07 10:54:52;;;;;;;20.17;19.17;;;19.60;99.90;;;;;;5025353;28;20296;-85
2023/06/07 10:57:35;;;;;;;15.27;14.30;;;19.70;99.90;;;;;;5023778;28;20237;-87
2023/06/07 11:00:28;;;;;;;17.73;16.93;;;19.00;99.90;;;;;;5020760;28;20281;-87
2023/06/07 11:03:10;;;;;;;20.10;19.00;;;18.70;99.90;;;;;;5025111;28;20782;-88
2023/06/07 11:05:55;;;;;;;17.97;16.97;;;19.10;99.90;;;;;;5032790;28;20257;-88
2023/06/07 11:08:24;;;;;;;15.13;14.07;;;19.20;99.90;;;;;;5024211;28;20273;-88
2023/06/07 11:10:59;;;;;;;23.67;22.30;;;19.00;99.90;;;;;;5026275;28;20178;-87
2023/06/07 11:13:45;;;;;;;20.63;19.53;;;19.40;99.90;;;;;;5025025;28;20966;-86
2023/06/07 11:16:23;;;;;;;18.40;17.37;;;20.00;99.90;;;;;;5018165;28;20222;-89
2023/06/07 11:18:56;;;;;;;19.10;18.13;;;20.10;99.90;;;;;;5026158;28;20772;-89
2023/06/07 11:21:26;;;;;;;20.33;19.13;;;19.70;99.90;;;;;;5025776;28;20210;-88
2023/06/07 11:24:11;;;;;;;17.23;16.27;;;19.70;99.90;;;;;;5025996;28;20230;-88
2023/06/07 11:26:37;;;;;;;19.77;18.73;;;18.70;99.90;;;;;;5023079;28;20226;-88
2023/06/07 11:29:05;;;;;;;20.47;19.07;;;18.90;99.90;;;;;;5009174;28;20191;-88
2023/06/07 11:31:31;;;;;;;17.67;16.97;;;19.60;99.90;;;;;;5008158;28;20214;-88
2023/06/07 11:33:57;;;;;;;21.90;21.00;;;19.60;99.90;;;;;;5008310;28;20739;-88
2023/06/07 11:36:23;;;;;;;20.17;19.27;;;19.50;99.90;;;;;;5025208;28;20222;-88
2023/06/07 11:38:49;;;;;;;10.93;10.13;;;19.40;99.90;;;;;;5008716;28;20210;-89
2023/06/07 11:41:15;;;;;;;9.73;8.83;;;18.80;99.90;;;;;;5008723;28;20203;-88
2023/06/07 11:43:41;;;;;;;13.97;12.80;;;18.30;99.90;;;;;;5041480;28;20453;-87
2023/06/07 11:46:07;;;;;;;10.70;9.60;;;18.50;99.90;;;;;;5024505;28;20229;-90
2023/06/07 11:48:32;;;;;;;10.57;9.77;;;18.30;99.90;;;;;;5025871;28;20223;-89
2023/06/07 11:51:00;;;;;;;12.47;11.53;;;18.00;99.90;;;;;;5009714;28;20222;-88
2023/06/07 11:53:28;;;;;;;12.30;11.67;;;18.20;99.90;;;;;;5007745;28;20325;-88
2023/06/07 11:55:55;;;;;;;22.27;21.07;;;18.20;99.90;;;;;;5024919;28;20183;-89
2023/06/07 11:58:22;;;;;;;18.17;17.20;;;18.10;99.90;;;;;;5008471;28;20215;-88
2023/06/07 12:00:49;;;;;;;30.40;27.87;;;18.00;99.90;;;;;;5056173;28;20254;-87
2023/06/07 12:03:17;;;;;;;22.13;21.10;;;18.30;99.90;;;;;;5025038;28;20246;-85
2023/06/07 12:05:44;;;;;;;27.53;26.37;;;18.40;99.90;;;;;;5007650;28;20222;-86
2023/06/07 12:08:13;;;;;;;34.50;32.50;;;18.50;99.90;;;;;;5022447;28;20198;-85
2023/06/07 12:10:39;;;;;;;31.97;30.77;;;18.20;99.90;;;;;;5023197;28;20273;-86
2023/06/07 12:13:05;;;;;;;35.30;33.90;;;18.20;99.90;;;;;;5006754;28;20309;-87
2023/06/07 12:15:32;;;;;;;38.07;36.67;;;18.00;99.90;;;;;;5031567;28;20229;-86
2023/06/07 12:17:58;;;;;;;46.73;43.47;;;17.80;99.90;;;;;;5007181;28;20215;-86
2023/06/07 12:20:25;;;;;;;58.33;56.20;;;17.90;99.90;;;;;;5038998;28;20200;-86
2023/06/07 12:22:51;;;;;;;70.53;68.13;;;17.90;99.90;;;;;;5023461;28;20215;-86
2023/06/07 12:25:19;;;;;;;63.73;61.23;;;17.70;99.90;;;;;;5014991;28;20234;-85
2023/06/07 12:27:48;;;;;;;77.50;74.40;;;17.80;99.90;;;;;;5024987;28;20272;-87
2023/06/07 12:30:14;;;;;;;73.33;70.60;;;17.80;99.90;;;;;;5024251;28;20249;-85
2023/06/07 12:32:40;;;;;;;83.83;80.83;;;18.10;99.90;;;;;;5007628;28;20222;-86